createdAt,value
2023-03-08T00:01:15.266Z,2.10
2023-03-08T00:03:42.149Z,2.04
2023-03-08T00:06:11.464Z,2.01
2023-03-08T00:08:38.259Z,1.99
2023-03-08T00:11:06.332Z,2.01
2023-03-08T00:13:32.962Z,2.00
2023-03-08T00:16:01.466Z,2.00
2023-03-08T00:18:27.914Z,1.97
2023-03-08T00:21:01.904Z,1.93
2023-03-08T00:23:28.298Z,1.91
2023-03-08T00:25:55.160Z,1.87
2023-03-08T00:28:21.675Z,1.87
2023-03-08T00:31:09.134Z,1.86
2023-03-08T00:33:36.327Z,1.86
2023-03-08T00:36:06.790Z,1.86
2023-03-08T00:38:35.835Z,1.85
2023-03-08T00:41:02.886Z,1.83
2023-03-08T00:43:31.922Z,1.84
2023-03-08T00:45:58.685Z,1.86
2023-03-08T00:48:25.104Z,1.87
2023-03-08T00:50:51.981Z,1.85
2023-03-08T00:53:19.103Z,1.84
2023-03-08T00:55:51.578Z,1.78
2023-03-08T00:58:18.767Z,1.77
2023-03-08T01:00:46.078Z,1.77
2023-03-08T01:03:13.007Z,1.78
2023-03-08T01:05:44.697Z,1.79
2023-03-08T01:08:13.779Z,1.76
2023-03-08T01:10:40.964Z,1.77
2023-03-08T01:13:08.378Z,1.77
2023-03-08T01:15:36.901Z,1.78
2023-03-08T01:18:05.563Z,1.82
2023-03-08T01:20:32.899Z,1.85
2023-03-08T01:22:59.442Z,1.87
2023-03-08T01:25:26.113Z,1.84
2023-03-08T01:27:52.533Z,1.83
2023-03-08T01:30:19.236Z,1.84
2023-03-08T01:32:45.714Z,1.82
2023-03-08T01:35:12.241Z,1.72
2023-03-08T01:37:38.788Z,1.63
2023-03-08T01:40:06.284Z,1.61
2023-03-08T01:42:33.287Z,1.59
2023-03-08T01:45:03.392Z,1.64
2023-03-08T01:47:33.267Z,1.66
2023-03-08T01:50:11.954Z,1.64
2023-03-08T01:52:43.246Z,1.65
2023-03-08T01:55:12.789Z,1.65
2023-03-08T01:57:47.469Z,1.67
2023-03-08T02:00:22.903Z,1.66
2023-03-08T02:02:59.568Z,1.67
2023-03-08T02:05:27.158Z,1.64
2023-03-08T02:07:58.833Z,1.63
2023-03-08T02:10:28.940Z,1.66
2023-03-08T02:12:55.654Z,1.64
2023-03-08T02:15:22.719Z,1.62
2023-03-08T02:17:52.974Z,1.56
2023-03-08T02:20:27.578Z,1.57
2023-03-08T02:22:54.260Z,1.54
2023-03-08T02:25:25.147Z,1.52
2023-03-08T02:27:53.484Z,1.51
2023-03-08T02:30:25.592Z,1.51
2023-03-08T02:32:53.326Z,1.50
2023-03-08T02:35:19.708Z,1.51
2023-03-08T02:37:46.121Z,1.52
2023-03-08T02:40:13.442Z,1.57
2023-03-08T02:42:40.273Z,1.58
2023-03-08T02:45:07.761Z,1.58
2023-03-08T02:47:34.231Z,1.57
2023-03-08T02:50:00.635Z,1.55
2023-03-08T02:52:27.132Z,1.53
2023-03-08T02:54:53.927Z,1.52
2023-03-08T02:57:22.182Z,1.50
2023-03-08T02:59:49.980Z,1.51
2023-03-08T03:02:16.998Z,1.53
2023-03-08T03:04:43.524Z,1.56
2023-03-08T03:07:09.887Z,1.58
2023-03-08T03:09:37.278Z,1.59
2023-03-08T03:12:04.059Z,1.60
2023-03-08T03:14:34.667Z,1.59
2023-03-08T03:17:02.317Z,1.57
2023-03-08T03:19:28.790Z,1.56
2023-03-08T03:21:55.231Z,1.51
2023-03-08T03:24:21.743Z,1.49
2023-03-08T03:26:54.778Z,1.48
2023-03-08T03:29:23.368Z,1.46
2023-03-08T03:31:55.809Z,1.45
2023-03-08T03:34:22.784Z,1.46
2023-03-08T03:36:50.059Z,1.48
2023-03-08T03:39:16.646Z,1.50
2023-03-08T03:41:44.613Z,1.47
2023-03-08T03:44:13.804Z,1.47
2023-03-08T03:46:42.971Z,1.47
2023-03-08T03:49:11.501Z,1.47
2023-03-08T03:51:41.339Z,1.47
2023-03-08T03:54:19.335Z,1.45
2023-03-08T03:56:47.320Z,1.42
2023-03-08T03:59:14.129Z,1.41
2023-03-08T04:01:40.762Z,1.39
2023-03-08T04:04:17.838Z,1.36
2023-03-08T04:06:46.446Z,1.34
2023-03-08T04:09:17.613Z,1.33
2023-03-08T04:11:48.482Z,1.35
2023-03-08T04:14:18.994Z,1.39
2023-03-08T04:16:45.560Z,1.39
2023-03-08T04:19:20.666Z,1.40
2023-03-08T04:21:51.360Z,1.42
2023-03-08T04:24:19.717Z,1.44
2023-03-08T04:26:50.032Z,1.44
2023-03-08T04:29:18.953Z,1.44
2023-03-08T04:31:45.926Z,1.46
2023-03-08T04:34:15.966Z,1.45
2023-03-08T04:36:44.203Z,1.46
2023-03-08T04:39:10.689Z,1.45
2023-03-08T04:41:37.267Z,1.46
2023-03-08T04:44:24.008Z,1.47
2023-03-08T04:46:52.458Z,1.46
2023-03-08T04:49:26.472Z,1.44
2023-03-08T04:51:58.661Z,1.44
2023-03-08T04:54:25.360Z,1.43
2023-03-08T04:56:58.726Z,1.42
2023-03-08T04:59:25.659Z,1.41
2023-03-08T05:01:55.046Z,1.27
2023-03-08T05:04:22.535Z,1.21
2023-03-08T05:06:49.109Z,1.22
2023-03-08T05:09:20.642Z,1.23
2023-03-08T05:11:49.895Z,1.24
2023-03-08T05:14:16.422Z,1.26
2023-03-08T05:16:42.936Z,1.30
2023-03-08T05:19:10.348Z,1.31
2023-03-08T05:21:44.461Z,1.29
2023-03-08T05:24:11.069Z,1.28
2023-03-08T05:26:40.161Z,1.28
2023-03-08T05:29:08.246Z,1.28
2023-03-08T05:31:37.599Z,1.28
2023-03-08T05:34:10.648Z,1.31
2023-03-08T05:36:38.942Z,1.29
2023-03-08T05:39:07.461Z,1.29
2023-03-08T05:41:43.616Z,1.27
2023-03-08T05:44:11.264Z,1.26
2023-03-08T05:46:39.438Z,1.27
2023-03-08T05:49:07.588Z,1.23
2023-03-08T05:51:35.872Z,1.23
2023-03-08T05:54:02.727Z,1.22
2023-03-08T05:56:31.446Z,1.18
2023-03-08T05:59:20.837Z,1.12
2023-03-08T06:01:47.694Z,0.98
2023-03-08T06:04:22.743Z,0.86
2023-03-08T06:06:50.828Z,0.87
2023-03-08T06:09:19.634Z,0.87
2023-03-08T06:11:47.066Z,0.89
2023-03-08T06:14:14.312Z,0.90
2023-03-08T06:16:41.359Z,0.88
2023-03-08T06:19:07.756Z,0.93
2023-03-08T06:21:35.738Z,0.97
2023-03-08T06:24:03.935Z,0.99
2023-03-08T06:26:30.831Z,1.02
2023-03-08T06:28:57.551Z,1.04
2023-03-08T06:31:27.971Z,1.04
2023-03-08T06:33:55.188Z,1.07
2023-03-08T06:36:24.727Z,1.10
2023-03-08T06:38:51.551Z,1.12
2023-03-08T06:41:20.343Z,1.12
2023-03-08T06:43:51.131Z,1.12
2023-03-08T06:46:19.092Z,1.15
2023-03-08T06:48:47.252Z,1.16
2023-03-08T06:51:14.920Z,1.15
2023-03-08T06:53:44.105Z,1.14
2023-03-08T06:56:14.464Z,1.16
2023-03-08T06:58:41.346Z,1.16
2023-03-08T07:01:09.595Z,1.18
2023-03-08T07:03:37.180Z,1.20
2023-03-08T07:06:07.180Z,1.24
2023-03-08T07:08:34.632Z,1.28
2023-03-08T07:11:01.483Z,1.30
2023-03-08T07:13:29.689Z,1.33
2023-03-08T07:15:56.914Z,1.35
2023-03-08T07:18:23.702Z,1.40
2023-03-08T07:20:56.808Z,1.45
2023-03-08T07:23:23.722Z,1.49
2023-03-08T07:25:50.206Z,1.49
2023-03-08T07:28:16.663Z,1.48
2023-03-08T07:30:50.894Z,1.55
2023-03-08T07:33:19.858Z,1.60
2023-03-08T07:35:47.037Z,1.65
2023-03-08T07:38:13.630Z,1.70
2023-03-08T07:40:40.115Z,1.69
2023-03-08T07:43:06.818Z,1.65
2023-03-08T07:45:45.445Z,1.66
2023-03-08T07:48:11.889Z,1.67
2023-03-08T07:50:38.309Z,1.65
2023-03-08T07:53:04.831Z,1.66
2023-03-08T07:55:31.253Z,1.65
2023-03-08T07:57:57.632Z,1.65
2023-03-08T08:00:24.267Z,1.72
2023-03-08T08:02:53.930Z,1.79
2023-03-08T08:05:22.025Z,1.79
2023-03-08T08:07:48.831Z,1.83
2023-03-08T08:10:15.430Z,1.85
2023-03-08T08:12:41.885Z,1.84
2023-03-08T08:15:08.495Z,1.80
2023-03-08T08:17:34.966Z,1.75
2023-03-08T08:20:01.406Z,1.82
2023-03-08T08:22:27.768Z,1.71
2023-03-08T08:24:54.168Z,1.68
2023-03-08T08:27:20.522Z,1.68
2023-03-08T08:29:49.423Z,1.73
2023-03-08T08:32:15.881Z,1.76
2023-03-08T08:34:42.398Z,1.76
2023-03-08T08:37:08.776Z,1.78
2023-03-08T08:39:35.312Z,1.82
2023-03-08T08:42:01.785Z,1.86
2023-03-08T08:44:28.284Z,1.92
2023-03-08T08:46:54.756Z,1.93
2023-03-08T08:49:21.171Z,1.93
2023-03-08T08:51:47.583Z,1.93
2023-03-08T08:54:14.054Z,2.04
2023-03-08T08:56:42.899Z,2.02
2023-03-08T08:59:11.839Z,1.99
2023-03-08T09:01:43.431Z,2.00
2023-03-08T09:04:12.029Z,2.11
2023-03-08T09:06:38.802Z,2.25
2023-03-08T09:09:05.914Z,2.31
2023-03-08T09:11:34.672Z,2.40
2023-03-08T09:14:02.497Z,2.42
2023-03-08T09:16:31.529Z,2.39
2023-03-08T09:18:59.438Z,2.43
2023-03-08T09:21:28.050Z,2.53
2023-03-08T09:23:55.832Z,2.68
2023-03-08T09:26:22.242Z,2.60
2023-03-08T09:28:48.682Z,2.61
2023-03-08T09:31:16.853Z,2.59
2023-03-08T09:33:48.848Z,2.65
2023-03-08T09:36:15.694Z,2.62
2023-03-08T09:38:42.882Z,2.54
2023-03-08T09:41:40.497Z,2.57
2023-03-08T09:44:12.763Z,2.46
2023-03-08T09:46:58.918Z,2.42
2023-03-08T09:49:30.506Z,2.43
2023-03-08T09:52:07.683Z,2.53
2023-03-08T09:54:38.100Z,2.63
2023-03-08T09:57:11.748Z,2.74
2023-03-08T09:59:44.773Z,2.78
2023-03-08T10:02:37.334Z,2.90
2023-03-08T10:05:30.782Z,3.02
2023-03-08T10:08:06.005Z,3.21
2023-03-08T10:11:04.145Z,3.33
2023-03-08T10:13:40.172Z,3.36
2023-03-08T10:16:23.550Z,3.30
2023-03-08T10:19:00.148Z,3.28
2023-03-08T10:21:29.499Z,3.29
2023-03-08T10:24:04.926Z,3.46
2023-03-08T10:26:31.511Z,3.42
2023-03-08T10:28:57.864Z,3.38
2023-03-08T10:31:27.202Z,3.36
2023-03-08T10:34:11.473Z,3.36
2023-03-08T10:37:06.639Z,3.29
2023-03-08T10:39:34.993Z,3.26
2023-03-08T10:42:07.037Z,3.22
2023-03-08T10:44:44.456Z,3.22
2023-03-08T10:47:23.995Z,3.08
2023-03-08T10:50:12.117Z,2.93
2023-03-08T10:52:38.521Z,2.85
2023-03-08T10:55:06.368Z,2.81
2023-03-08T10:57:33.682Z,2.83
2023-03-08T11:00:29.247Z,2.84
2023-03-08T11:03:23.419Z,2.75
2023-03-08T11:06:00.309Z,2.62
2023-03-08T11:08:35.895Z,2.72
2023-03-08T11:11:03.453Z,2.68
2023-03-08T11:13:33.335Z,2.64
2023-03-08T11:16:41.029Z,2.84
2023-03-08T11:19:32.280Z,2.90
2023-03-08T11:22:07.797Z,2.93
2023-03-08T11:24:40.292Z,2.92
2023-03-08T11:27:43.710Z,2.90
2023-03-08T11:30:24.211Z,2.85
2023-03-08T11:33:09.535Z,2.85
2023-03-08T11:36:00.228Z,2.82
2023-03-08T11:38:30.268Z,2.89
2023-03-08T11:40:56.599Z,3.05
2023-03-08T11:43:47.209Z,3.01
2023-03-08T11:46:30.398Z,2.98
2023-03-08T11:49:13.066Z,3.00
2023-03-08T11:51:55.403Z,3.07
2023-03-08T11:54:39.860Z,3.14
2023-03-08T11:57:10.315Z,3.12
2023-03-08T11:59:44.166Z,3.08
2023-03-08T12:02:18.554Z,3.13
2023-03-08T12:04:58.114Z,3.16
2023-03-08T12:07:28.094Z,3.23
2023-03-08T12:10:00.806Z,3.16
2023-03-08T12:12:37.405Z,3.16
2023-03-08T12:15:19.808Z,3.19
2023-03-08T12:17:53.996Z,3.26
2023-03-08T12:20:22.255Z,3.31
2023-03-08T12:23:08.366Z,3.41
2023-03-08T12:25:40.292Z,3.39
2023-03-08T12:28:45.106Z,3.34
2023-03-08T12:31:27.422Z,3.26
2023-03-08T12:33:57.781Z,3.16
2023-03-08T12:36:38.076Z,3.14
2023-03-08T12:39:25.469Z,3.15
2023-03-08T12:42:14.470Z,3.05
2023-03-08T12:44:41.304Z,3.34
2023-03-08T12:47:13.743Z,3.49
2023-03-08T12:49:43.770Z,3.41
2023-03-08T12:52:19.391Z,3.42
2023-03-08T12:55:01.876Z,3.37
2023-03-08T12:57:32.769Z,3.44
2023-03-08T13:00:10.370Z,3.53
2023-03-08T13:02:36.815Z,3.52
2023-03-08T13:05:29.193Z,3.50
2023-03-08T13:08:04.221Z,3.49
2023-03-08T13:10:37.738Z,3.54
2023-03-08T13:13:35.037Z,3.61
2023-03-08T13:16:21.882Z,3.60
2023-03-08T13:18:52.761Z,3.58
2023-03-08T13:21:47.883Z,3.53
2023-03-08T13:24:36.250Z,3.66
2023-03-08T13:27:21.529Z,3.65
2023-03-08T13:29:48.144Z,3.73
2023-03-08T13:32:20.399Z,3.57
2023-03-08T13:35:04.947Z,3.51
2023-03-08T13:37:32.227Z,3.52
2023-03-08T13:40:00.057Z,3.54
2023-03-08T13:42:28.865Z,3.59
2023-03-08T13:45:16.019Z,3.56
2023-03-08T13:47:45.851Z,3.59
2023-03-08T13:50:24.906Z,3.59
2023-03-08T13:52:51.777Z,3.62
2023-03-08T13:55:21.471Z,3.55
2023-03-08T13:57:52.242Z,3.60
2023-03-08T14:00:18.688Z,3.56
2023-03-08T14:02:47.203Z,3.43
2023-03-08T14:05:18.607Z,3.52
2023-03-08T14:07:59.389Z,3.53
2023-03-08T14:10:34.507Z,3.42
2023-03-08T14:13:01.618Z,3.37
2023-03-08T14:15:38.791Z,3.39
2023-03-08T14:18:08.230Z,3.43
2023-03-08T14:20:34.712Z,3.53
2023-03-08T14:23:01.195Z,3.58
2023-03-08T14:25:30.866Z,3.54
2023-03-08T14:27:58.237Z,3.56
2023-03-08T14:30:28.042Z,3.63
2023-03-08T14:33:07.042Z,3.71
2023-03-08T14:35:38.347Z,3.69
2023-03-08T14:38:13.486Z,3.73
2023-03-08T14:40:48.683Z,3.80
2023-03-08T14:43:23.745Z,3.88
2023-03-08T14:45:56.776Z,3.84
2023-03-08T14:48:24.940Z,3.81
2023-03-08T14:50:54.678Z,3.83
2023-03-08T14:53:34.472Z,3.86
2023-03-08T14:56:05.371Z,3.85
2023-03-08T14:58:33.648Z,3.95
2023-03-08T15:01:02.195Z,3.91
2023-03-08T15:03:32.279Z,3.79
2023-03-08T15:06:04.791Z,3.69
2023-03-08T15:08:31.268Z,3.81
2023-03-08T15:10:57.777Z,3.76
2023-03-08T15:13:24.752Z,3.79
2023-03-08T15:15:51.275Z,3.86
2023-03-08T15:18:17.946Z,3.95
2023-03-08T15:20:49.335Z,3.95
2023-03-08T15:23:28.568Z,3.95
2023-03-08T15:25:55.244Z,3.96
2023-03-08T15:28:22.992Z,3.99
2023-03-08T15:30:52.739Z,4.03
2023-03-08T15:33:19.680Z,4.16
2023-03-08T15:35:47.225Z,4.18
2023-03-08T15:38:15.388Z,4.14
2023-03-08T15:40:42.445Z,4.15
2023-03-08T15:43:09.421Z,4.11
2023-03-08T15:45:36.506Z,4.01
2023-03-08T15:48:05.875Z,3.95
2023-03-08T15:50:33.408Z,3.93
2023-03-08T15:53:00.442Z,3.98
2023-03-08T15:55:29.008Z,3.92
2023-03-08T15:57:55.742Z,3.85
2023-03-08T16:00:23.770Z,3.81
2023-03-08T16:02:53.532Z,3.80
2023-03-08T16:05:22.719Z,3.83
2023-03-08T16:07:57.703Z,3.89
2023-03-08T16:10:24.329Z,3.86
2023-03-08T16:12:50.962Z,3.84
2023-03-08T16:15:17.530Z,3.83
2023-03-08T16:17:44.212Z,3.89
2023-03-08T16:20:12.475Z,3.88
2023-03-08T16:22:39.445Z,3.89
2023-03-08T16:25:06.737Z,3.91
2023-03-08T16:27:38.102Z,3.86
2023-03-08T16:30:05.349Z,3.87
2023-03-08T16:32:31.872Z,3.82
2023-03-08T16:34:59.135Z,3.76
2023-03-08T16:37:25.988Z,3.73
2023-03-08T16:39:54.445Z,3.74
2023-03-08T16:42:21.539Z,3.65
2023-03-08T16:44:50.913Z,3.71
2023-03-08T16:47:18.102Z,3.71
2023-03-08T16:49:45.066Z,3.64
2023-03-08T16:52:11.647Z,3.68
2023-03-08T16:54:38.071Z,3.61
2023-03-08T16:57:18.291Z,3.62
2023-03-08T16:59:45.745Z,3.63
2023-03-08T17:02:17.020Z,3.61
2023-03-08T17:04:44.067Z,3.63
2023-03-08T17:07:10.989Z,3.65
2023-03-08T17:09:38.587Z,3.66
2023-03-08T17:12:06.781Z,3.89
2023-03-08T17:14:34.923Z,4.02
2023-03-08T17:17:01.862Z,3.83
2023-03-08T17:19:28.397Z,3.73
2023-03-08T17:21:54.844Z,3.61
2023-03-08T17:24:21.714Z,3.51
2023-03-08T17:26:52.569Z,3.55
2023-03-08T17:29:19.368Z,3.57
2023-03-08T17:31:45.796Z,3.63
2023-03-08T17:34:12.723Z,3.63
2023-03-08T17:36:39.374Z,3.60
2023-03-08T17:39:06.051Z,3.62
2023-03-08T17:41:32.681Z,3.56
2023-03-08T17:43:59.166Z,3.57
2023-03-08T17:46:29.397Z,3.59
2023-03-08T17:48:56.419Z,3.59
2023-03-08T17:51:26.557Z,3.54
2023-03-08T17:53:53.741Z,3.52
2023-03-08T17:56:24.955Z,3.51
2023-03-08T17:58:52.468Z,3.43
2023-03-08T18:01:21.285Z,3.38
2023-03-08T18:03:48.579Z,3.33
2023-03-08T18:06:31.768Z,3.28
2023-03-08T18:08:59.781Z,3.26
2023-03-08T18:11:27.475Z,3.31
2023-03-08T18:13:54.738Z,3.32
2023-03-08T18:16:22.013Z,3.31
2023-03-08T18:18:49.986Z,3.32
2023-03-08T18:21:17.959Z,3.27
2023-03-08T18:23:45.368Z,3.15
2023-03-08T18:26:13.470Z,3.13
2023-03-08T18:28:40.600Z,3.14
2023-03-08T18:31:09.438Z,3.15
2023-03-08T18:33:36.262Z,3.17
2023-03-08T18:36:03.744Z,3.20
2023-03-08T18:38:30.207Z,3.25
2023-03-08T18:40:56.639Z,3.27
2023-03-08T18:43:23.061Z,3.22
2023-03-08T18:45:53.933Z,3.14
2023-03-08T18:48:21.184Z,3.00
2023-03-08T18:50:47.672Z,2.97
2023-03-08T18:53:15.682Z,3.03
2023-03-08T18:55:54.273Z,3.06
2023-03-08T18:58:21.433Z,3.03
2023-03-08T19:00:48.246Z,2.92
2023-03-08T19:03:14.690Z,2.87
2023-03-08T19:05:41.204Z,2.85
2023-03-08T19:08:07.624Z,2.79
2023-03-08T19:10:34.035Z,2.89
2023-03-08T19:13:00.535Z,2.94
2023-03-08T19:15:26.986Z,2.93
2023-03-08T19:17:59.655Z,2.86
2023-03-08T19:20:26.583Z,2.83
2023-03-08T19:22:53.431Z,2.82
2023-03-08T19:25:19.861Z,2.90
2023-03-08T19:27:46.243Z,2.92
2023-03-08T19:30:12.790Z,2.95
2023-03-08T19:32:40.990Z,2.89
2023-03-08T19:35:09.291Z,2.95
2023-03-08T19:37:35.902Z,2.91
2023-03-08T19:40:05.138Z,2.96
2023-03-08T19:42:31.500Z,3.02
2023-03-08T19:44:58.352Z,3.01
2023-03-08T19:47:24.778Z,2.98
2023-03-08T19:49:51.316Z,2.98
2023-03-08T19:52:17.979Z,2.97
2023-03-08T19:54:45.381Z,3.00
2023-03-08T19:57:11.842Z,3.02
2023-03-08T19:59:38.367Z,2.87
2023-03-08T20:02:07.214Z,2.85
2023-03-08T20:04:34.082Z,2.84
2023-03-08T20:07:01.054Z,2.90
2023-03-08T20:09:27.753Z,2.94
2023-03-08T20:11:58.442Z,2.88
2023-03-08T20:14:27.118Z,2.89
2023-03-08T20:16:54.488Z,2.93
2023-03-08T20:19:21.044Z,2.84
2023-03-08T20:21:47.474Z,2.81
2023-03-08T20:24:14.407Z,2.89
2023-03-08T20:26:41.941Z,2.82
2023-03-08T20:29:08.827Z,2.80
2023-03-08T20:31:35.347Z,2.77
2023-03-08T20:34:01.781Z,2.64
2023-03-08T20:36:29.389Z,2.55
2023-03-08T20:38:57.876Z,2.53
2023-03-08T20:41:24.593Z,2.56
2023-03-08T20:43:52.451Z,2.60
2023-03-08T20:46:21.200Z,2.59
2023-03-08T20:48:47.744Z,2.58
2023-03-08T20:51:19.133Z,2.52
2023-03-08T20:53:48.803Z,2.39
2023-03-08T20:56:17.187Z,2.41
2023-03-08T20:58:43.655Z,2.44
2023-03-08T21:01:12.492Z,2.53
2023-03-08T21:03:38.910Z,2.51
2023-03-08T21:06:13.844Z,2.52
2023-03-08T21:08:40.993Z,2.49
2023-03-08T21:11:07.512Z,2.51
2023-03-08T21:13:34.436Z,2.53
2023-03-08T21:16:06.592Z,2.44
2023-03-08T21:18:32.983Z,2.43
2023-03-08T21:20:59.783Z,2.51
2023-03-08T21:23:26.588Z,2.58
2023-03-08T21:25:53.966Z,2.60
2023-03-08T21:28:21.712Z,2.60
2023-03-08T21:30:49.738Z,2.53
2023-03-08T21:33:16.159Z,2.52
2023-03-08T21:35:43.081Z,2.45
2023-03-08T21:38:09.627Z,2.48
2023-03-08T21:40:42.053Z,2.45
2023-03-08T21:43:09.181Z,2.46
2023-03-08T21:45:42.266Z,2.41
2023-03-08T21:48:09.002Z,2.41
2023-03-08T21:50:39.784Z,2.49
2023-03-08T21:53:07.883Z,2.38
2023-03-08T21:55:39.110Z,2.26
2023-03-08T21:58:06.000Z,2.20
2023-03-08T22:00:32.691Z,2.14
2023-03-08T22:02:59.207Z,2.12
2023-03-08T22:05:25.670Z,2.17
2023-03-08T22:07:52.130Z,2.12
2023-03-08T22:10:20.131Z,2.08
2023-03-08T22:12:47.368Z,2.08
2023-03-08T22:15:15.555Z,2.01
2023-03-08T22:17:43.044Z,1.99
2023-03-08T22:20:10.727Z,1.90
2023-03-08T22:22:38.234Z,1.99
2023-03-08T22:25:06.334Z,1.98
2023-03-08T22:27:32.798Z,1.95
2023-03-08T22:29:59.236Z,2.05
2023-03-08T22:32:25.946Z,1.98
2023-03-08T22:34:52.422Z,2.03
2023-03-08T22:37:18.820Z,2.01
2023-03-08T22:39:45.261Z,2.05
2023-03-08T22:42:11.891Z,2.12
2023-03-08T22:44:38.286Z,2.16
2023-03-08T22:47:05.042Z,2.23
2023-03-08T22:49:31.496Z,2.20
2023-03-08T22:51:57.902Z,2.20
2023-03-08T22:54:24.341Z,2.20
2023-03-08T22:56:50.845Z,2.21
2023-03-08T22:59:17.744Z,2.19
2023-03-08T23:01:44.619Z,2.16
2023-03-08T23:04:12.476Z,2.09
2023-03-08T23:06:39.034Z,2.06
2023-03-08T23:09:10.093Z,2.02
2023-03-08T23:11:37.993Z,1.95
2023-03-08T23:14:05.740Z,1.97
2023-03-08T23:16:32.434Z,1.91
2023-03-08T23:18:58.990Z,1.97
2023-03-08T23:21:29.748Z,1.83
2023-03-08T23:23:57.487Z,1.76
2023-03-08T23:26:27.069Z,1.80
2023-03-08T23:28:54.936Z,1.72
2023-03-08T23:31:24.696Z,1.67
2023-03-08T23:33:52.052Z,1.61
2023-03-08T23:36:21.986Z,1.63
2023-03-08T23:38:49.325Z,1.58
2023-03-08T23:41:16.835Z,1.55
2023-03-08T23:43:45.111Z,1.59
2023-03-08T23:46:17.535Z,1.54
2023-03-08T23:48:45.396Z,1.58
2023-03-08T23:51:15.244Z,1.63
2023-03-08T23:53:41.974Z,1.69
2023-03-08T23:56:19.228Z,1.63
2023-03-08T23:58:48.360Z,1.57
